createdAt,value
2018-03-04T00:04:11.307Z,98052.50
2018-03-04T00:10:15.926Z,98062.72
2018-03-04T00:16:20.931Z,98052.09
2018-03-04T00:22:41.489Z,98048.24
2018-03-04T00:28:45.976Z,98048.66
2018-03-04T00:34:50.715Z,98062.94
2018-03-04T00:40:55.382Z,98057.50
2018-03-04T00:46:59.953Z,98053.38
2018-03-04T00:53:05.341Z,98060.83
2018-03-04T00:59:09.832Z,98049.70
2018-03-04T01:05:15.209Z,98055.77
2018-03-04T01:11:19.891Z,98048.16
2018-03-04T01:17:24.581Z,98043.38
2018-03-04T01:23:29.980Z,98036.41
2018-03-04T01:29:34.540Z,98033.84
2018-03-04T01:35:39.091Z,98028.86
2018-03-04T01:41:43.652Z,98030.62
2018-03-04T01:47:48.253Z,98035.70
2018-03-04T01:53:54.333Z,98025.98
2018-03-04T01:59:59.066Z,98015.65
2018-03-04T02:06:03.871Z,98018.23
2018-03-04T02:12:08.455Z,98027.16
2018-03-04T02:18:13.810Z,98039.09
2018-03-04T02:24:18.646Z,98033.61
2018-03-04T02:30:23.790Z,98042.56
2018-03-04T02:36:28.421Z,98029.53
2018-03-04T02:42:33.747Z,98012.97
2018-03-04T02:48:39.505Z,98024.54
2018-03-04T02:54:44.865Z,98031.45
2018-03-04T03:00:49.656Z,98029.47
2018-03-04T03:06:54.367Z,98028.83
2018-03-04T03:12:59.076Z,98024.59
2018-03-04T03:19:03.817Z,98016.12
2018-03-04T03:25:09.897Z,98019.92
2018-03-04T03:31:14.467Z,98024.73
2018-03-04T03:37:19.910Z,98012.78
2018-03-04T03:43:24.594Z,98021.41
2018-03-04T03:49:29.124Z,98002.39
2018-03-04T03:55:34.422Z,98000.95
2018-03-04T04:01:39.888Z,97988.66
2018-03-04T04:07:44.582Z,97985.84
2018-03-04T04:13:49.339Z,97987.35
2018-03-04T04:19:54.022Z,97984.19
2018-03-04T04:25:58.602Z,97974.08
2018-03-04T04:32:03.171Z,97969.19
2018-03-04T04:38:07.822Z,97973.83
2018-03-04T04:44:12.418Z,97974.10
2018-03-04T04:50:16.909Z,97971.08
2018-03-04T04:56:22.445Z,97969.48
2018-03-04T05:02:26.977Z,97972.47
2018-03-04T05:08:31.557Z,97963.88
2018-03-04T05:14:36.046Z,97958.92
2018-03-04T05:20:40.564Z,97959.05
2018-03-04T05:26:45.879Z,97954.44
2018-03-04T05:32:51.553Z,97958.32
2018-03-04T05:38:57.971Z,97946.26
2018-03-04T05:45:02.654Z,97949.35
2018-03-04T05:51:07.933Z,97941.70
2018-03-04T05:57:12.488Z,97936.26
2018-03-04T06:03:17.264Z,97943.59
2018-03-04T06:09:22.052Z,97940.80
2018-03-04T06:15:26.535Z,97945.09
2018-03-04T06:21:31.945Z,97952.55
2018-03-04T06:27:36.770Z,97947.17
2018-03-04T06:33:41.490Z,97938.22
2018-03-04T06:39:45.987Z,97937.97
2018-03-04T06:45:51.739Z,97932.59
2018-03-04T06:51:56.443Z,97932.72
2018-03-04T06:58:01.926Z,97929.87
2018-03-04T07:04:06.590Z,97939.50
2018-03-04T07:10:11.147Z,97934.59
2018-03-04T07:16:15.695Z,97947.06
2018-03-04T07:22:21.027Z,97941.77
2018-03-04T07:28:25.837Z,97958.95
2018-03-04T07:34:30.515Z,97952.58
2018-03-04T07:40:35.144Z,97944.58
2018-03-04T07:46:39.782Z,97925.09
2018-03-04T07:52:44.400Z,97918.92
2018-03-04T07:58:49.089Z,97920.07
2018-03-04T08:04:54.234Z,97940.23
2018-03-04T08:10:58.768Z,97947.69
2018-03-04T08:17:03.253Z,97938.83
2018-03-04T08:23:07.760Z,97924.84
2018-03-04T08:29:12.303Z,97924.92
2018-03-04T08:35:16.896Z,97926.63
2018-03-04T08:41:23.202Z,97921.80
2018-03-04T08:47:28.152Z,97929.00
2018-03-04T08:53:32.641Z,97933.00
2018-03-04T08:59:37.893Z,97939.59
2018-03-04T09:05:42.669Z,97927.32
2018-03-04T09:11:47.196Z,97925.55
2018-03-04T09:17:52.262Z,97925.55
2018-03-04T09:23:56.937Z,97923.39
2018-03-04T09:30:02.289Z,97933.67
2018-03-04T09:36:06.804Z,97932.96
2018-03-04T09:42:11.354Z,97927.69
2018-03-04T09:48:15.927Z,97923.83
2018-03-04T09:54:21.287Z,97925.05
2018-03-04T10:00:25.939Z,97916.95
2018-03-04T10:06:30.445Z,97913.86
2018-03-04T10:12:35.269Z,97905.97
2018-03-04T10:18:40.530Z,97895.22
2018-03-04T10:24:45.018Z,97875.44
2018-03-04T10:30:49.813Z,97862.78
2018-03-04T10:36:54.374Z,97855.61
2018-03-04T10:42:59.634Z,97865.30
2018-03-04T10:49:04.548Z,97863.80
2018-03-04T10:55:09.113Z,97853.88
2018-03-04T11:01:19.526Z,97877.13
2018-03-04T11:07:24.512Z,97881.58
2018-03-04T11:13:29.169Z,97875.55
2018-03-04T11:19:33.663Z,97864.42
2018-03-04T11:25:38.150Z,97866.23
2018-03-04T11:31:42.667Z,97856.23
2018-03-04T11:37:47.939Z,97845.43
2018-03-04T11:43:52.786Z,97831.80
2018-03-04T11:49:57.439Z,97821.45
2018-03-04T11:56:01.955Z,97824.95
2018-03-04T12:02:06.444Z,97822.06
2018-03-04T12:08:10.907Z,97833.38
2018-03-04T12:14:15.397Z,97820.34
2018-03-04T12:20:20.346Z,97810.85
2018-03-04T12:26:25.651Z,97816.73
2018-03-04T12:32:30.130Z,97806.06
2018-03-04T12:38:34.599Z,97800.69
2018-03-04T12:44:39.143Z,97801.34
2018-03-04T12:50:43.817Z,97809.06
2018-03-04T12:56:48.387Z,97806.16
2018-03-04T13:02:52.944Z,97798.30
2018-03-04T13:08:57.406Z,97806.75
2018-03-04T13:15:02.039Z,97802.36
2018-03-04T13:21:06.514Z,97793.65
2018-03-04T13:27:12.003Z,97796.66
2018-03-04T13:33:16.562Z,97800.59
2018-03-04T13:39:21.158Z,97764.54
2018-03-04T13:45:25.697Z,97781.13
2018-03-04T13:51:30.212Z,97769.47
2018-03-04T13:57:34.693Z,97754.13
2018-03-04T14:03:39.191Z,97741.07
2018-03-04T14:09:44.484Z,97736.16
2018-03-04T14:15:50.344Z,97727.68
2018-03-04T14:21:54.907Z,97720.09
2018-03-04T14:27:59.402Z,97713.09
2018-03-04T14:34:03.925Z,97712.77
2018-03-04T14:40:09.283Z,97683.81
2018-03-04T14:46:13.842Z,97677.52
2018-03-04T14:52:18.431Z,97688.72
2018-03-04T14:58:23.222Z,97677.16
2018-03-04T15:04:27.746Z,97673.54
2018-03-04T15:10:33.004Z,97663.50
2018-03-04T15:16:37.670Z,97669.94
2018-03-04T15:22:42.211Z,97674.08
2018-03-04T15:28:46.697Z,97656.72
2018-03-04T15:34:52.209Z,97651.45
2018-03-04T15:40:56.819Z,97644.31
2018-03-04T15:47:01.297Z,97651.60
2018-03-04T15:53:05.995Z,97668.66
2018-03-04T15:59:10.491Z,97675.18
2018-03-04T16:05:15.058Z,97674.09
2018-03-04T16:11:19.652Z,97657.78
2018-03-04T16:17:25.023Z,97663.52
2018-03-04T16:23:30.512Z,97666.19
2018-03-04T16:29:35.000Z,97666.33
2018-03-04T16:35:39.492Z,97670.01
2018-03-04T16:41:44.693Z,97657.99
2018-03-04T16:47:49.367Z,97645.17
2018-03-04T16:53:54.043Z,97641.56
2018-03-04T16:59:58.523Z,97630.13
2018-03-04T17:06:03.024Z,97632.18
2018-03-04T17:12:07.530Z,97620.85
2018-03-04T17:18:12.039Z,97618.77
2018-03-04T17:24:16.546Z,97617.25
2018-03-04T17:30:21.194Z,97611.77
2018-03-04T17:36:25.842Z,97607.89
2018-03-04T17:42:30.435Z,97594.98
2018-03-04T17:48:34.952Z,97587.67
2018-03-04T17:54:39.521Z,97572.36
2018-03-04T18:00:44.001Z,97574.63
2018-03-04T18:06:49.289Z,97550.77
2018-03-04T18:12:53.988Z,97556.75
2018-03-04T18:18:58.917Z,97555.81
2018-03-04T18:25:03.482Z,97554.34
2018-03-04T18:31:08.905Z,97563.47
2018-03-04T18:37:13.517Z,97579.30
2018-03-04T18:43:18.080Z,97579.88
2018-03-04T18:49:22.867Z,97589.30
2018-03-04T18:55:27.414Z,97581.38
2018-03-04T19:01:32.655Z,97572.47
2018-03-04T19:07:37.183Z,97571.34
2018-03-04T19:13:42.422Z,97564.86
2018-03-04T19:19:46.929Z,97574.08
2018-03-04T19:25:51.770Z,97566.95
2018-03-04T19:31:56.271Z,97557.91
2018-03-04T19:38:00.769Z,97560.10
2018-03-04T19:44:05.379Z,97558.62
2018-03-04T19:50:10.849Z,97551.31
2018-03-04T19:56:15.622Z,97539.03
2018-03-04T20:02:20.407Z,97535.70
2018-03-04T20:08:24.972Z,97539.80
2018-03-04T20:14:30.295Z,97526.59
2018-03-04T20:20:34.808Z,97515.47
2018-03-04T20:26:40.467Z,97512.17
2018-03-04T20:32:44.966Z,97510.09
2018-03-04T20:38:49.429Z,97499.13
2018-03-04T20:44:54.009Z,97499.48
2018-03-04T20:50:58.569Z,97506.80
2018-03-04T20:57:03.047Z,97500.98
2018-03-04T21:03:07.578Z,97509.86
2018-03-04T21:09:13.327Z,97510.19
2018-03-04T21:15:17.827Z,97509.32
2018-03-04T21:21:22.688Z,97529.19
2018-03-04T21:27:27.189Z,97537.25
2018-03-04T21:33:32.433Z,97557.72
2018-03-04T21:39:36.909Z,97549.98
2018-03-04T21:45:41.504Z,97556.14
2018-03-04T21:51:46.015Z,97549.22
2018-03-04T21:57:50.799Z,97527.29
2018-03-04T22:03:55.679Z,97514.67
2018-03-04T22:10:00.187Z,97543.95
2018-03-04T22:16:05.446Z,97528.14
2018-03-04T22:22:10.026Z,97528.56
2018-03-04T22:28:14.550Z,97525.81
2018-03-04T22:34:19.200Z,97520.89
2018-03-04T22:40:23.819Z,97506.20
2018-03-04T22:46:28.280Z,97513.44
2018-03-04T22:52:32.712Z,97506.41
2018-03-04T22:58:37.249Z,97499.58
2018-03-04T23:04:42.692Z,97495.20
2018-03-04T23:10:47.177Z,97490.91
2018-03-04T23:16:51.863Z,97483.16
2018-03-04T23:22:56.367Z,97483.88
2018-03-04T23:29:00.792Z,97481.51
2018-03-04T23:35:06.039Z,97463.56
2018-03-04T23:41:10.515Z,97420.88
2018-03-04T23:47:15.003Z,97401.73
2018-03-04T23:53:19.810Z,97425.06
2018-03-04T23:59:24.591Z,97431.07
